Calgary (YYC/CYYC)

Map

Information

Location
Calgary, AB, Canada
Local Time
21:50 / 9:50 pm
GMT Time
03:50 / 3:50 am
Gates
No FAA reported delays
METAR CYYC 170300Z 11005KT 10SM BKN140 BKN240 21/06 A2988 RMK AC5CI2 FU SLP117 DENSITY ALT 5200FT
TAF TAF CYYC 170243Z 1703/1724 07005KT P6SM BKN120 BKN200 TEMPO 1703/1706 6SM FU FM170600 05008KT P6SM BKN100 TEMPO 1706/1710 6SM -SHRA FU BKN080 FM171000 35006KT P6SM BKN080 FM171200 32006KT P6SM SCT070 BECMG 1716/1718 09005KT FM171900 12008KT P6SM FEW050 BECMG 1721/1723 14012KT RMK NXT FCST BY 170600Z